Weather at Huronia Airport

Public forecast

Using degrees Celsius for public forecast. Weather courtesy of forecast.io.

Closest aviation weather report (METAR) to Huronia Airport

Closest report is CFB Borden, 24.7 nm (45.8 km) S. Retrieved 2021/03/05 05:00 UTC (2 hours ago):

CYBN 050500Z AUTO 30003KT 9SM CLR M14/M17 A3015 RMK SLP228

Closest aviation forecast (TAF) to Huronia Airport

Forecast is more than 6 hours old.

Closest forecast is CFB Borden, 24.7 nm (45.8 km) S. Retrieved 2021-03-05 00:33 UTC (6 hours ago):

TAF TAF CYBN 042330Z 0500/0512 32012G22KT P6SM BKN030 TEMPO 0500/0502 5SM -SHSN BKN020 FM050200 34012KT P6SM SCT020 TEMPO 0502/0505 BKN020 RMK FCST BASED ON AUTO OBS NXT FCST BY 050600Z